Orestes, Indiana
Current Conditions -  °F | °C
As of 6:35 PM on Saturday 25 Oct 2014 (Local Time) from KMZZ Reporting Station
Clear Clear  
Wind Chill: 65°   Ceiling: Unl
Heat Index: 65°   Visibility: 7mi
Dew Point: 49°   Wind: 9mph
Humidity: 56%   Direction: 270°W
Pressure: 29.91"   Gusts: NA
Location:  40.27°N, 85.73°W
Report Text: KMZZ 252235Z AUTO 27008KT 7SM CLR 19/10 A2991 RMK AO2 T01850096
Loading
Personal Weather Stations






























Interactive Weather Map
Tropical Storm Tracking
New forecast layout! Learn more

10-Day Weather Forecast

Advertisements
Track Severe Weather on mobile